Time;durP1;ratioP1;P1;durP2;ratioP2;P2;SDS_P1;SDS_P2;PMS_P1;PMS_P2;Temp;Humidity;BMP_temperature;BMP_pressure;BME280_temperature;BME280_humidity;BME280_pressure;Samples;Min_cycle;Max_cycle;Signal;HPM_P1;HPM_P2
2024/01/24 00:00:23;;;;;;;10.03;3.47;;;;;;;;;;5074874;28;20267;-68
2024/01/24 00:02:49;;;;;;;14.40;4.07;;;;;;;;;;5057055;28;20182;-67
2024/01/24 00:05:16;;;;;;;12.37;3.47;;;;;;;;;;5075013;28;20289;-70
2024/01/24 00:07:42;;;;;;;8.47;3.13;;;;;;;;;;5057154;28;20180;-69
2024/01/24 00:10:08;;;;;;;12.23;4.03;;;;;;;;;;5057914;28;20182;-68
2024/01/24 00:12:34;;;;;;;8.40;3.23;;;;;;;;;;5057934;28;20182;-68
2024/01/24 00:15:01;;;;;;;13.17;3.60;;;;;;;;;;5057157;28;20216;-70
2024/01/24 00:17:27;;;;;;;8.33;3.37;;;;;;;;;;5075015;28;20177;-68
2024/01/24 00:19:52;;;;;;;13.17;3.47;;;;;;;;;;5075154;28;20242;-68
2024/01/24 00:22:18;;;;;;;8.73;3.87;;;;;;;;;;5056102;28;20170;-68
2024/01/24 00:24:44;;;;;;;12.53;4.23;;;;;;;;;;5074293;28;20197;-69
2024/01/24 00:27:11;;;;;;;8.30;3.20;;;;;;;;;;5074447;28;20269;-68
2024/01/24 00:29:37;;;;;;;12.43;3.47;;;;;;;;;;5056761;28;20178;-68
2024/01/24 00:32:03;;;;;;;11.93;3.70;;;;;;;;;;5074267;28;20255;-68
2024/01/24 00:34:29;;;;;;;9.67;2.80;;;;;;;;;;5074239;28;20255;-69
2024/01/24 00:36:55;;;;;;;10.83;3.40;;;;;;;;;;5074450;28;20200;-69
2024/01/24 00:39:21;;;;;;;9.43;3.13;;;;;;;;;;5074299;28;20201;-71
2024/01/24 00:41:47;;;;;;;12.03;3.80;;;;;;;;;;5074171;28;20170;-68
2024/01/24 00:44:14;;;;;;;9.23;3.13;;;;;;;;;;5074302;28;20693;-67
2024/01/24 00:46:40;;;;;;;7.23;2.57;;;;;;;;;;5074244;28;20265;-68
2024/01/24 00:49:13;;;;;;;9.20;3.17;;;;;;;;;;5074249;28;20173;-68
2024/01/24 00:51:39;;;;;;;7.10;3.17;;;;;;;;;;5074252;28;20182;-68
2024/01/24 00:54:05;;;;;;;6.33;3.00;;;;;;;;;;5055991;28;20242;-68
2024/01/24 00:56:30;;;;;;;6.63;2.40;;;;;;;;;;5073887;28;20185;-68
2024/01/24 00:58:56;;;;;;;7.03;2.27;;;;;;;;;;5074006;28;20193;-68
2024/01/24 01:01:23;;;;;;;7.43;2.50;;;;;;;;;;5073771;28;20189;-68
2024/01/24 01:03:49;;;;;;;7.13;2.50;;;;;;;;;;5073752;28;20174;-68
2024/01/24 01:06:15;;;;;;;6.77;2.70;;;;;;;;;;5075149;28;20573;-68
2024/01/24 01:08:40;;;;;;;7.80;2.67;;;;;;;;;;5075735;28;20186;-67
2024/01/24 01:11:07;;;;;;;8.13;2.43;;;;;;;;;;5076344;28;20204;-68
2024/01/24 01:13:34;;;;;;;4.07;2.03;;;;;;;;;;5075344;28;20177;-69
2024/01/24 01:16:00;;;;;;;9.23;2.60;;;;;;;;;;5073674;28;20201;-69
2024/01/24 01:18:26;;;;;;;5.43;2.37;;;;;;;;;;5074063;28;20256;-69
2024/01/24 01:20:52;;;;;;;5.37;2.40;;;;;;;;;;5056616;28;20619;-68
2024/01/24 01:23:18;;;;;;;4.73;2.20;;;;;;;;;;5055717;28;20226;-68
2024/01/24 01:25:44;;;;;;;5.83;2.60;;;;;;;;;;5073765;28;20197;-69
2024/01/24 01:28:10;;;;;;;5.10;2.57;;;;;;;;;;5073918;28;20178;-68
2024/01/24 01:30:36;;;;;;;7.03;1.93;;;;;;;;;;5073825;28;20173;-68
2024/01/24 01:33:02;;;;;;;3.27;1.87;;;;;;;;;;5073451;28;20177;-68
2024/01/24 01:35:28;;;;;;;3.77;2.20;;;;;;;;;;5073401;28;20295;-69
2024/01/24 01:37:54;;;;;;;2.43;2.07;;;;;;;;;;5073806;28;20184;-70
2024/01/24 01:40:20;;;;;;;4.03;2.17;;;;;;;;;;5055483;28;20293;-69
2024/01/24 01:42:46;;;;;;;3.47;1.90;;;;;;;;;;5073428;28;20219;-68
2024/01/24 01:45:12;;;;;;;3.10;1.90;;;;;;;;;;5073297;28;20202;-68
2024/01/24 01:47:39;;;;;;;2.93;1.60;;;;;;;;;;5073243;28;20170;-68
2024/01/24 01:50:07;;;;;;;5.30;1.90;;;;;;;;;;5073230;28;20178;-68
2024/01/24 01:52:33;;;;;;;4.07;1.50;;;;;;;;;;5073081;28;20174;-68
2024/01/24 01:54:59;;;;;;;5.47;2.00;;;;;;;;;;5054915;28;20224;-68
2024/01/24 01:57:25;;;;;;;1.70;1.60;;;;;;;;;;5073117;28;20184;-68
2024/01/24 01:59:52;;;;;;;3.17;1.70;;;;;;;;;;5072728;28;20258;-69
2024/01/24 02:02:18;;;;;;;3.73;2.23;;;;;;;;;;5073468;28;20185;-68
2024/01/24 02:04:44;;;;;;;6.40;1.70;;;;;;;;;;5073054;28;20189;-68
2024/01/24 02:07:10;;;;;;;3.87;1.60;;;;;;;;;;5072985;28;20197;-69
2024/01/24 02:09:36;;;;;;;2.67;1.80;;;;;;;;;;5054943;28;20178;-68
2024/01/24 02:12:02;;;;;;;2.77;1.83;;;;;;;;;;5073108;28;20186;-68
2024/01/24 02:14:28;;;;;;;2.10;1.67;;;;;;;;;;5072950;28;20276;-68
2024/01/24 02:16:54;;;;;;;5.17;1.70;;;;;;;;;;5072908;28;20556;-68
2024/01/24 02:19:21;;;;;;;2.87;1.70;;;;;;;;;;5072850;28;20201;-68
2024/01/24 02:21:47;;;;;;;2.97;1.60;;;;;;;;;;5072873;28;20170;-69
2024/01/24 02:24:13;;;;;;;3.07;1.30;;;;;;;;;;5073227;28;20176;-68
2024/01/24 02:26:39;;;;;;;3.17;1.40;;;;;;;;;;5072837;28;20659;-69
2024/01/24 02:29:06;;;;;;;3.07;1.30;;;;;;;;;;5073088;28;20174;-69
2024/01/24 02:31:32;;;;;;;1.60;1.50;;;;;;;;;;5073077;28;20174;-68
2024/01/24 02:33:57;;;;;;;1.70;1.30;;;;;;;;;;5072806;28;20184;-67
2024/01/24 02:36:23;;;;;;;1.53;1.40;;;;;;;;;;5072968;28;20281;-68
2024/01/24 02:38:49;;;;;;;1.67;1.40;;;;;;;;;;5072516;28;20174;-68
2024/01/24 02:41:17;;;;;;;2.40;1.40;;;;;;;;;;5072839;28;20185;-68
2024/01/24 02:43:43;;;;;;;1.63;1.40;;;;;;;;;;5072520;28;20177;-69
2024/01/24 02:46:09;;;;;;;1.20;1.07;;;;;;;;;;5073334;28;20694;-68
2024/01/24 02:48:35;;;;;;;3.13;1.33;;;;;;;;;;5058346;28;20182;-68
2024/01/24 02:51:01;;;;;;;2.03;1.40;;;;;;;;;;5076195;28;20180;-69
2024/01/24 02:53:27;;;;;;;6.20;1.87;;;;;;;;;;5058222;28;20174;-68
2024/01/24 02:55:53;;;;;;;3.83;1.50;;;;;;;;;;5075979;28;20198;-68
2024/01/24 02:58:19;;;;;;;2.07;1.37;;;;;;;;;;5058183;28;20188;-69
2024/01/24 03:00:45;;;;;;;2.97;1.50;;;;;;;;;;5075957;28;20209;-69
2024/01/24 03:03:11;;;;;;;1.30;1.20;;;;;;;;;;5076487;28;20595;-68
2024/01/24 03:05:37;;;;;;;1.43;1.33;;;;;;;;;;5058484;28;20702;-68
2024/01/24 03:08:03;;;;;;;1.53;1.40;;;;;;;;;;5058492;28;20674;-68
2024/01/24 03:10:32;;;;;;;1.37;1.20;;;;;;;;;;5076296;28;20174;-68
2024/01/24 03:12:58;;;;;;;3.07;1.30;;;;;;;;;;5059303;28;20182;-69
2024/01/24 03:15:25;;;;;;;1.37;1.23;;;;;;;;;;5076768;28;20205;-70
2024/01/24 03:17:51;;;;;;;1.63;1.50;;;;;;;;;;5075889;28;20206;-69
2024/01/24 03:20:17;;;;;;;1.93;1.20;;;;;;;;;;5057774;28;20275;-69
2024/01/24 03:22:44;;;;;;;5.70;1.50;;;;;;;;;;5075859;28;20184;-69
2024/01/24 03:25:12;;;;;;;1.20;1.10;;;;;;;;;;5057954;28;20228;-68
2024/01/24 03:27:38;;;;;;;2.13;1.40;;;;;;;;;;5075554;28;20178;-68
2024/01/24 03:30:05;;;;;;;2.10;1.33;;;;;;;;;;5057787;28;20185;-69
2024/01/24 03:32:31;;;;;;;5.07;1.47;;;;;;;;;;5057884;28;20189;-68
2024/01/24 03:34:59;;;;;;;1.43;1.20;;;;;;;;;;5057785;28;20213;-69
2024/01/24 03:37:25;;;;;;;2.20;1.00;;;;;;;;;;5057326;28;20186;-69
2024/01/24 03:39:51;;;;;;;1.30;1.20;;;;;;;;;;5075318;28;20201;-68
2024/01/24 03:42:17;;;;;;;1.13;1.10;;;;;;;;;;5075221;28;20254;-69
2024/01/24 03:44:43;;;;;;;1.20;1.10;;;;;;;;;;5075058;28;20660;-69
2024/01/24 03:47:09;;;;;;;2.30;1.20;;;;;;;;;;5075154;28;20174;-68
2024/01/24 03:49:35;;;;;;;1.33;1.23;;;;;;;;;;5075185;28;20186;-69
2024/01/24 03:52:01;;;;;;;1.90;1.30;;;;;;;;;;5075041;28;20177;-69
2024/01/24 03:54:27;;;;;;;1.30;1.17;;;;;;;;;;5075173;28;20665;-68
2024/01/24 03:56:53;;;;;;;1.30;1.20;;;;;;;;;;5074798;28;20182;-69
2024/01/24 03:59:19;;;;;;;1.07;1.07;;;;;;;;;;5057190;28;20201;-69
2024/01/24 04:01:45;;;;;;;1.47;1.37;;;;;;;;;;5057377;28;20266;-69
2024/01/24 04:04:11;;;;;;;1.60;1.10;;;;;;;;;;5075374;28;20182;-69
2024/01/24 04:06:37;;;;;;;2.10;1.10;;;;;;;;;;5075173;28;20176;-69
2024/01/24 04:09:03;;;;;;;1.13;1.10;;;;;;;;;;5074793;28;20170;-69
2024/01/24 04:11:29;;;;;;;3.07;1.00;;;;;;;;;;5074728;28;20170;-69
2024/01/24 04:13:56;;;;;;;1.80;1.00;;;;;;;;;;5074700;28;20170;-69
2024/01/24 04:16:22;;;;;;;2.10;1.10;;;;;;;;;;5074533;28;20208;-69
2024/01/24 04:18:52;;;;;;;1.70;1.20;;;;;;;;;;5056478;28;20177;-69
2024/01/24 04:21:18;;;;;;;3.57;1.00;;;;;;;;;;5074439;28;20177;-69
2024/01/24 04:23:44;;;;;;;4.87;1.50;;;;;;;;;;5056451;28;20573;-69
2024/01/24 04:26:10;;;;;;;2.47;1.20;;;;;;;;;;5075021;28;20205;-70
2024/01/24 04:28:36;;;;;;;1.33;0.90;;;;;;;;;;5074531;28;20173;-71
2024/01/24 04:31:02;;;;;;;4.30;1.00;;;;;;;;;;5074736;28;20183;-70
2024/01/24 04:33:28;;;;;;;1.57;1.10;;;;;;;;;;5074904;28;20632;-70
2024/01/24 04:35:57;;;;;;;1.27;1.00;;;;;;;;;;5057383;28;20208;-70
2024/01/24 04:38:24;;;;;;;2.37;1.10;;;;;;;;;;5076300;28;20231;-70
2024/01/24 04:40:50;;;;;;;1.23;0.90;;;;;;;;;;5067806;28;20220;-70
2024/01/24 04:43:15;;;;;;;4.83;1.00;;;;;;;;;;5079770;28;20264;-70
2024/01/24 04:45:41;;;;;;;2.30;0.90;;;;;;;;;;5081102;28;20276;-70
2024/01/24 04:48:07;;;;;;;4.67;1.30;;;;;;;;;;5080588;28;20225;-70
2024/01/24 04:50:33;;;;;;;1.20;1.00;;;;;;;;;;5074812;28;20178;-70
2024/01/24 04:52:59;;;;;;;1.80;0.97;;;;;;;;;;5074282;28;20628;-70
2024/01/24 04:55:25;;;;;;;2.57;1.00;;;;;;;;;;5055937;28;20209;-70
2024/01/24 04:57:51;;;;;;;1.60;0.93;;;;;;;;;;5056268;28;20239;-70
2024/01/24 05:00:17;;;;;;;4.30;1.20;;;;;;;;;;5073700;28;20690;-70
2024/01/24 05:02:43;;;;;;;3.17;1.30;;;;;;;;;;5056092;28;20243;-70
2024/01/24 05:05:10;;;;;;;3.43;1.23;;;;;;;;;;5073961;28;20707;-70
2024/01/24 05:07:36;;;;;;;1.67;1.37;;;;;;;;;;5074305;28;20260;-70
2024/01/24 05:10:06;;;;;;;10.97;1.50;;;;;;;;;;5055234;28;20188;-70
2024/01/24 05:12:32;;;;;;;7.00;1.53;;;;;;;;;;5073754;28;20189;-70
2024/01/24 05:14:58;;;;;;;3.10;1.47;;;;;;;;;;5073663;28;20201;-70
2024/01/24 05:17:24;;;;;;;6.57;1.90;;;;;;;;;;5073868;28;20182;-70
2024/01/24 05:19:50;;;;;;;6.37;1.90;;;;;;;;;;5074212;28;20281;-70
2024/01/24 05:22:16;;;;;;;5.10;2.07;;;;;;;;;;5074163;28;20699;-70
2024/01/24 05:24:46;;;;;;;6.17;2.10;;;;;;;;;;5073522;28;20197;-70
2024/01/24 05:27:12;;;;;;;8.70;2.40;;;;;;;;;;5073891;28;20170;-71
2024/01/24 05:29:39;;;;;;;7.70;2.47;;;;;;;;;;5073349;28;20238;-71
2024/01/24 05:32:05;;;;;;;7.33;2.50;;;;;;;;;;5073327;28;20177;-70
2024/01/24 05:34:31;;;;;;;7.73;2.37;;;;;;;;;;5055494;28;20209;-70
2024/01/24 05:36:57;;;;;;;5.63;2.10;;;;;;;;;;5073622;28;20554;-70
2024/01/24 05:39:23;;;;;;;10.43;3.23;;;;;;;;;;5073129;28;20250;-70
2024/01/24 05:41:49;;;;;;;12.83;3.07;;;;;;;;;;5073682;28;20170;-71
2024/01/24 05:44:15;;;;;;;9.33;2.70;;;;;;;;;;5073397;28;20170;-70
2024/01/24 05:46:41;;;;;;;11.97;2.93;;;;;;;;;;5073472;28;20305;-70
2024/01/24 05:49:07;;;;;;;14.17;2.97;;;;;;;;;;5055316;28;20189;-71
2024/01/24 05:51:33;;;;;;;9.67;3.07;;;;;;;;;;5073433;28;20214;-70
2024/01/24 05:53:59;;;;;;;9.00;3.17;;;;;;;;;;5073373;28;20184;-70
2024/01/24 05:56:25;;;;;;;11.70;3.17;;;;;;;;;;5076341;28;20174;-70
2024/01/24 05:58:51;;;;;;;7.00;2.93;;;;;;;;;;5077030;28;20186;-71
2024/01/24 06:01:17;;;;;;;6.90;2.50;;;;;;;;;;5075370;28;20607;-70
2024/01/24 06:03:43;;;;;;;13.33;3.43;;;;;;;;;;5076503;28;20169;-71
2024/01/24 06:06:09;;;;;;;13.07;3.00;;;;;;;;;;5056710;28;20262;-70
2024/01/24 06:08:35;;;;;;;11.77;3.43;;;;;;;;;;5076133;28;20256;-70
2024/01/24 06:11:01;;;;;;;13.27;3.50;;;;;;;;;;5076667;28;20185;-70
2024/01/24 06:13:27;;;;;;;10.13;2.90;;;;;;;;;;5056655;28;20213;-70
2024/01/24 06:15:53;;;;;;;11.33;3.23;;;;;;;;;;5054887;28;20293;-70
2024/01/24 06:18:19;;;;;;;14.53;3.40;;;;;;;;;;5073177;28;20224;-70
2024/01/24 06:20:45;;;;;;;11.47;2.63;;;;;;;;;;5055388;28;20205;-71
2024/01/24 06:23:11;;;;;;;12.83;3.63;;;;;;;;;;5077008;28;20303;-70
2024/01/24 06:25:37;;;;;;;14.13;3.93;;;;;;;;;;5059103;28;20238;-70
2024/01/24 06:28:03;;;;;;;15.83;3.30;;;;;;;;;;5077416;28;20249;-70
2024/01/24 06:30:30;;;;;;;20.47;3.87;;;;;;;;;;5077091;28;20189;-70
2024/01/24 06:32:56;;;;;;;14.67;3.80;;;;;;;;;;5058948;28;20182;-70
2024/01/24 06:35:22;;;;;;;9.00;2.80;;;;;;;;;;5076843;28;20212;-70
2024/01/24 06:37:49;;;;;;;14.57;3.63;;;;;;;;;;5059067;28;20181;-70
2024/01/24 06:40:15;;;;;;;15.00;4.90;;;;;;;;;;5076646;28;20198;-70
2024/01/24 06:42:41;;;;;;;12.07;3.30;;;;;;;;;;5076660;28;20247;-70
2024/01/24 06:45:10;;;;;;;13.60;3.60;;;;;;;;;;5058722;28;20209;-70
2024/01/24 06:47:36;;;;;;;13.40;3.90;;;;;;;;;;5076607;28;20169;-70
2024/01/24 06:50:03;;;;;;;14.10;3.67;;;;;;;;;;5076926;28;20170;-70
2024/01/24 06:52:30;;;;;;;19.90;4.10;;;;;;;;;;5077501;28;20611;-69
2024/01/24 06:54:56;;;;;;;15.00;3.50;;;;;;;;;;5087006;28;20193;-70
2024/01/24 06:57:23;;;;;;;12.90;3.70;;;;;;;;;;5085869;28;20587;-70
2024/01/24 06:59:49;;;;;;;21.37;4.50;;;;;;;;;;5081309;28;20220;-70
2024/01/24 07:02:15;;;;;;;13.27;3.27;;;;;;;;;;5058866;28;20184;-70
2024/01/24 07:04:41;;;;;;;12.53;3.90;;;;;;;;;;5076661;28;20288;-70
2024/01/24 07:07:07;;;;;;;18.57;3.73;;;;;;;;;;5076675;28;20181;-70
2024/01/24 07:09:35;;;;;;;15.67;3.60;;;;;;;;;;5076033;28;20177;-70
2024/01/24 07:12:02;;;;;;;20.73;4.97;;;;;;;;;;5058328;28;20221;-70
2024/01/24 07:14:28;;;;;;;17.30;4.30;;;;;;;;;;5076147;28;20331;-70
2024/01/24 07:16:54;;;;;;;18.43;4.53;;;;;;;;;;5076087;28;20639;-70
2024/01/24 07:19:19;;;;;;;13.03;3.67;;;;;;;;;;5058015;28;20726;-70
2024/01/24 07:21:46;;;;;;;17.03;4.50;;;;;;;;;;5075922;28;20180;-70
2024/01/24 07:24:12;;;;;;;14.93;4.87;;;;;;;;;;5057760;28;20174;-70
2024/01/24 07:26:38;;;;;;;14.73;5.20;;;;;;;;;;5075873;28;20166;-70
2024/01/24 07:29:04;;;;;;;20.83;4.70;;;;;;;;;;5075924;28;20178;-70
2024/01/24 07:31:30;;;;;;;17.60;5.10;;;;;;;;;;5075751;28;20191;-70
2024/01/24 07:33:56;;;;;;;24.80;5.63;;;;;;;;;;5075554;28;20181;-71
2024/01/24 07:36:22;;;;;;;11.90;4.17;;;;;;;;;;5075763;28;20229;-70
2024/01/24 07:38:48;;;;;;;23.97;5.03;;;;;;;;;;5057854;28;20178;-70
2024/01/24 07:41:15;;;;;;;24.80;6.43;;;;;;;;;;5057541;28;20206;-70
2024/01/24 07:43:41;;;;;;;21.87;4.83;;;;;;;;;;5076112;28;20177;-70
2024/01/24 07:46:09;;;;;;;20.00;5.20;;;;;;;;;;5075574;28;20197;-70
2024/01/24 07:48:35;;;;;;;15.93;5.13;;;;;;;;;;5076081;28;20177;-70
2024/01/24 07:51:01;;;;;;;24.03;6.50;;;;;;;;;;5075381;28;20182;-70
2024/01/24 07:53:27;;;;;;;21.37;5.00;;;;;;;;;;5075212;28;20182;-71
2024/01/24 07:55:53;;;;;;;18.10;5.23;;;;;;;;;;5075343;28;20604;-70
2024/01/24 07:58:19;;;;;;;20.33;5.27;;;;;;;;;;5075532;28;20178;-70
2024/01/24 08:00:45;;;;;;;15.27;5.00;;;;;;;;;;5075209;28;20217;-70
2024/01/24 08:03:11;;;;;;;25.43;6.00;;;;;;;;;;5075328;28;20190;-70
2024/01/24 08:05:37;;;;;;;22.67;6.23;;;;;;;;;;5057151;28;20293;-71
2024/01/24 08:08:03;;;;;;;25.80;6.33;;;;;;;;;;5057179;28;20630;-70
2024/01/24 08:10:29;;;;;;;19.43;6.00;;;;;;;;;;5057098;28;20185;-70
2024/01/24 08:12:55;;;;;;;23.30;5.90;;;;;;;;;;5057094;28;20528;-70
2024/01/24 08:15:21;;;;;;;23.20;5.67;;;;;;;;;;5074842;28;20554;-70
2024/01/24 08:17:47;;;;;;;26.10;6.20;;;;;;;;;;5075109;28;20227;-70
2024/01/24 08:20:13;;;;;;;23.73;5.43;;;;;;;;;;5074608;28;20197;-69
2024/01/24 08:22:39;;;;;;;24.50;6.17;;;;;;;;;;5075322;28;20177;-70
2024/01/24 08:25:06;;;;;;;27.63;5.77;;;;;;;;;;5056702;28;20194;-70
2024/01/24 08:27:32;;;;;;;24.60;5.60;;;;;;;;;;5074545;28;20181;-70
2024/01/24 08:29:59;;;;;;;17.73;6.00;;;;;;;;;;5074718;28;20182;-70
2024/01/24 08:32:25;;;;;;;21.73;4.80;;;;;;;;;;5074713;28;20181;-70
2024/01/24 08:34:51;;;;;;;25.30;5.90;;;;;;;;;;5074771;28;20217;-70
2024/01/24 08:37:17;;;;;;;25.43;5.97;;;;;;;;;;5074576;28;20595;-70
2024/01/24 08:39:43;;;;;;;27.23;5.80;;;;;;;;;;5074318;28;20212;-70
2024/01/24 08:42:09;;;;;;;22.13;5.20;;;;;;;;;;5056564;28;20182;-70
2024/01/24 08:44:35;;;;;;;22.00;5.70;;;;;;;;;;5055326;28;20697;-70
2024/01/24 08:47:01;;;;;;;19.93;5.20;;;;;;;;;;5056363;28;20251;-70
2024/01/24 08:49:27;;;;;;;20.20;4.80;;;;;;;;;;5074318;28;20188;-70
2024/01/24 08:51:53;;;;;;;24.60;5.17;;;;;;;;;;5074108;28;20174;-70
2024/01/24 08:54:19;;;;;;;19.10;4.50;;;;;;;;;;5074387;28;20189;-70
2024/01/24 08:56:45;;;;;;;22.50;5.90;;;;;;;;;;5074425;28;20178;-70
2024/01/24 08:59:11;;;;;;;25.77;6.10;;;;;;;;;;5073960;28;20177;-70
2024/01/24 09:01:37;;;;;;;25.97;6.07;;;;;;;;;;5074237;28;20182;-70
2024/01/24 09:04:03;;;;;;;16.07;5.20;;;;;;;;;;5074072;28;20174;-70
2024/01/24 09:06:30;;;;;;;19.70;5.07;;;;;;;;;;5074127;28;20170;-70
2024/01/24 09:08:56;;;;;;;31.53;6.87;;;;;;;;;;5073670;28;20640;-70
2024/01/24 09:11:22;;;;;;;27.07;6.57;;;;;;;;;;5073703;28;20260;-69
2024/01/24 09:13:48;;;;;;;26.40;6.53;;;;;;;;;;5055984;28;20276;-71
2024/01/24 09:16:15;;;;;;;29.70;8.53;;;;;;;;;;5055798;28;20201;-71
2024/01/24 09:18:41;;;;;;;26.30;5.67;;;;;;;;;;5073606;28;20204;-70
2024/01/24 09:21:07;;;;;;;25.47;6.13;;;;;;;;;;5073984;28;20205;-70
2024/01/24 09:23:33;;;;;;;23.50;6.23;;;;;;;;;;5055693;28;20270;-70
2024/01/24 09:25:59;;;;;;;20.27;5.70;;;;;;;;;;5073746;28;20315;-70
2024/01/24 09:28:25;;;;;;;22.63;6.07;;;;;;;;;;5074359;28;20174;-70
2024/01/24 09:30:51;;;;;;;26.57;6.23;;;;;;;;;;5073918;28;20268;-70
2024/01/24 09:33:17;;;;;;;21.20;5.53;;;;;;;;;;5073814;28;20182;-70
2024/01/24 09:35:46;;;;;;;21.40;6.23;;;;;;;;;;5073814;28;20204;-70
2024/01/24 09:38:13;;;;;;;23.40;5.87;;;;;;;;;;5073526;28;20185;-70
2024/01/24 09:40:39;;;;;;;25.37;6.67;;;;;;;;;;5073680;28;20197;-70
2024/01/24 09:43:08;;;;;;;35.00;7.40;;;;;;;;;;5055636;28;20189;-70
2024/01/24 09:45:37;;;;;;;27.97;6.03;;;;;;;;;;5073514;28;20197;-70
2024/01/24 09:48:03;;;;;;;27.37;5.73;;;;;;;;;;5074437;28;20252;-70
2024/01/24 09:50:29;;;;;;;24.50;6.80;;;;;;;;;;5083163;28;20185;-70
2024/01/24 09:52:56;;;;;;;23.97;6.07;;;;;;;;;;5083665;28;20181;-70
2024/01/24 09:55:23;;;;;;;25.37;6.57;;;;;;;;;;5078754;28;20221;-70
2024/01/24 09:57:49;;;;;;;28.77;6.40;;;;;;;;;;5074890;28;20178;-70
2024/01/24 10:00:15;;;;;;;25.90;6.47;;;;;;;;;;5074069;28;20236;-70
2024/01/24 10:02:44;;;;;;;25.40;6.00;;;;;;;;;;5073455;28;20181;-70
2024/01/24 10:05:16;;;;;;;34.97;6.70;;;;;;;;;;5055253;28;20262;-70
2024/01/24 10:07:42;;;;;;;27.77;6.13;;;;;;;;;;5073476;28;20181;-70
2024/01/24 10:10:09;;;;;;;32.53;6.97;;;;;;;;;;5055109;28;20214;-70
2024/01/24 10:12:36;;;;;;;19.23;6.00;;;;;;;;;;5073417;28;20182;-71
2024/01/24 10:15:02;;;;;;;28.43;6.57;;;;;;;;;;5073377;28;20246;-69
2024/01/24 10:17:29;;;;;;;24.47;5.83;;;;;;;;;;5073346;28;20190;-70
2024/01/24 10:19:55;;;;;;;24.30;5.30;;;;;;;;;;5073798;28;20573;-70
2024/01/24 10:22:24;;;;;;;22.70;6.50;;;;;;;;;;5073109;28;20178;-70
2024/01/24 10:24:50;;;;;;;29.03;6.53;;;;;;;;;;5072903;28;20637;-71
2024/01/24 10:27:16;;;;;;;25.07;6.77;;;;;;;;;;5073047;28;20189;-69
2024/01/24 10:29:45;;;;;;;25.03;6.10;;;;;;;;;;5073253;28;20223;-70
2024/01/24 10:32:11;;;;;;;36.53;7.60;;;;;;;;;;5073237;28;20638;-70
2024/01/24 10:34:37;;;;;;;23.73;6.93;;;;;;;;;;5073644;28;20236;-70
2024/01/24 10:37:06;;;;;;;27.00;7.07;;;;;;;;;;5055103;28;20178;-70
2024/01/24 10:39:34;;;;;;;23.17;5.67;;;;;;;;;;5055048;28;20198;-67
2024/01/24 10:42:02;;;;;;;29.97;6.03;;;;;;;;;;5073058;28;20668;-69
2024/01/24 10:44:32;;;;;;;20.23;4.83;;;;;;;;;;5074722;28;20193;-68
2024/01/24 10:46:58;;;;;;;28.90;6.00;;;;;;;;;;5074908;28;20178;-68
2024/01/24 10:49:24;;;;;;;18.33;6.13;;;;;;;;;;5056270;28;20181;-68
2024/01/24 10:51:51;;;;;;;28.90;5.93;;;;;;;;;;5073965;28;20173;-67
2024/01/24 10:54:17;;;;;;;15.47;5.77;;;;;;;;;;5072974;28;20197;-68
2024/01/24 10:56:49;;;;;;;21.83;5.30;;;;;;;;;;5054451;28;20632;-68
2024/01/24 10:59:15;;;;;;;26.30;5.90;;;;;;;;;;5072270;28;20173;-69
2024/01/24 11:01:41;;;;;;;23.37;6.10;;;;;;;;;;5054414;28;20190;-70
2024/01/24 11:04:08;;;;;;;26.37;6.33;;;;;;;;;;5072185;28;20223;-68
2024/01/24 11:06:35;;;;;;;22.87;5.97;;;;;;;;;;5073124;28;20533;-68
2024/01/24 11:09:08;;;;;;;28.33;5.93;;;;;;;;;;5075918;28;20182;-68
2024/01/24 11:11:35;;;;;;;24.57;5.87;;;;;;;;;;5075872;28;20717;-69
2024/01/24 11:14:02;;;;;;;19.80;4.90;;;;;;;;;;5076087;28;20220;-68
2024/01/24 11:16:32;;;;;;;25.50;6.00;;;;;;;;;;5076030;28;20254;-69
2024/01/24 11:18:59;;;;;;;14.57;4.40;;;;;;;;;;5075817;28;20178;-69
2024/01/24 11:21:28;;;;;;;14.93;5.90;;;;;;;;;;5075679;28;20251;-68
2024/01/24 11:23:54;;;;;;;25.53;6.90;;;;;;;;;;5075634;28;20219;-68
2024/01/24 11:26:20;;;;;;;23.87;6.73;;;;;;;;;;5075411;28;20276;-69
2024/01/24 11:28:46;;;;;;;26.10;5.87;;;;;;;;;;5075468;28;20174;-68
2024/01/24 11:31:12;;;;;;;25.70;6.93;;;;;;;;;;5075420;28;20550;-68
2024/01/24 11:34:11;;;;;;;15.57;4.73;;;;;;;;;;5057471;28;20674;-68
2024/01/24 11:36:47;;;;;;;18.47;5.20;;;;;;;;;;5021228;28;20239;-69
2024/01/24 11:39:43;;;;;;;17.87;4.60;;;;;;;;;;5057245;28;20181;-68
2024/01/24 11:42:25;;;;;;;25.03;5.70;;;;;;;;;;5054834;28;20186;-68
2024/01/24 11:44:54;;;;;;;18.63;4.97;;;;;;;;;;5075148;28;20327;-68
2024/01/24 11:47:23;;;;;;;21.10;5.37;;;;;;;;;;5058021;28;20185;-68
2024/01/24 11:49:50;;;;;;;17.43;5.30;;;;;;;;;;5075396;28;20188;-68
2024/01/24 11:52:22;;;;;;;25.13;7.13;;;;;;;;;;5075385;28;20559;-68
2024/01/24 11:54:51;;;;;;;23.10;5.90;;;;;;;;;;5075306;28;20736;-69
2024/01/24 11:57:17;;;;;;;19.37;4.53;;;;;;;;;;5075591;28;20567;-69
2024/01/24 11:59:43;;;;;;;15.50;5.03;;;;;;;;;;5075075;28;20243;-68
2024/01/24 12:02:09;;;;;;;19.73;5.00;;;;;;;;;;5056919;28;20182;-68
2024/01/24 12:04:35;;;;;;;18.93;4.73;;;;;;;;;;5075036;28;20589;-68
2024/01/24 12:07:01;;;;;;;22.53;5.63;;;;;;;;;;5075352;28;20184;-68
2024/01/24 12:09:27;;;;;;;16.90;4.90;;;;;;;;;;5056835;28;20182;-68
2024/01/24 12:11:53;;;;;;;28.90;5.60;;;;;;;;;;5074638;28;20261;-68
2024/01/24 12:14:20;;;;;;;18.23;4.60;;;;;;;;;;5074979;28;20177;-69
2024/01/24 12:16:46;;;;;;;16.70;4.27;;;;;;;;;;5056723;28;20499;-68
2024/01/24 12:19:12;;;;;;;23.80;5.50;;;;;;;;;;5056713;28;20524;-67
2024/01/24 12:21:38;;;;;;;26.07;5.93;;;;;;;;;;5075427;28;20230;-68
2024/01/24 12:24:04;;;;;;;20.73;5.57;;;;;;;;;;5074364;28;20198;-68
2024/01/24 12:26:30;;;;;;;21.40;5.63;;;;;;;;;;5074531;28;20604;-68
2024/01/24 12:28:56;;;;;;;15.50;5.73;;;;;;;;;;5074389;28;20223;-68
2024/01/24 12:31:25;;;;;;;26.63;6.27;;;;;;;;;;5057269;28;20666;-68
2024/01/24 12:33:51;;;;;;;22.17;5.23;;;;;;;;;;5075616;28;20182;-68
2024/01/24 12:36:17;;;;;;;23.73;5.40;;;;;;;;;;5057983;28;20686;-68
2024/01/24 12:38:43;;;;;;;22.13;5.70;;;;;;;;;;5076006;28;20174;-68
2024/01/24 12:41:09;;;;;;;26.80;5.50;;;;;;;;;;5057131;28;20198;-68
2024/01/24 12:43:36;;;;;;;23.27;5.90;;;;;;;;;;5057620;28;20597;-68
2024/01/24 12:46:08;;;;;;;18.37;4.70;;;;;;;;;;5074534;28;20197;-68
2024/01/24 12:48:35;;;;;;;21.00;5.63;;;;;;;;;;5074488;28;20251;-68
2024/01/24 12:51:00;;;;;;;14.80;4.43;;;;;;;;;;5056339;28;20185;-67
2024/01/24 12:53:26;;;;;;;24.70;5.83;;;;;;;;;;5057392;28;20181;-67
2024/01/24 12:55:52;;;;;;;20.57;4.87;;;;;;;;;;5074867;28;20289;-67
2024/01/24 12:58:18;;;;;;;23.73;5.27;;;;;;;;;;5073937;28;20201;-67
2024/01/24 13:00:44;;;;;;;25.17;4.77;;;;;;;;;;5055670;28;20263;-67
2024/01/24 13:03:10;;;;;;;16.37;5.47;;;;;;;;;;5055862;28;20178;-66
2024/01/24 13:05:36;;;;;;;22.70;5.63;;;;;;;;;;5073536;28;20281;-69
2024/01/24 13:08:02;;;;;;;18.40;4.90;;;;;;;;;;5055933;28;20230;-67
2024/01/24 13:10:29;;;;;;;21.20;4.60;;;;;;;;;;5055757;28;20182;-66
2024/01/24 13:12:55;;;;;;;21.00;5.97;;;;;;;;;;5056337;28;20276;-67
2024/01/24 13:15:23;;;;;;;19.33;6.87;;;;;;;;;;5073788;28;20281;-67
2024/01/24 13:17:49;;;;;;;23.47;7.13;;;;;;;;;;5073697;28;20185;-67
2024/01/24 13:20:15;;;;;;;20.27;6.57;;;;;;;;;;5073453;28;20578;-66
2024/01/24 13:22:40;;;;;;;17.13;6.00;;;;;;;;;;5073461;28;20555;-67
2024/01/24 13:25:07;;;;;;;18.10;5.40;;;;;;;;;;5055460;28;20193;-66
2024/01/24 13:27:33;;;;;;;17.40;3.93;;;;;;;;;;5055471;28;20178;-66
2024/01/24 13:29:58;;;;;;;15.70;4.10;;;;;;;;;;5073378;28;20204;-68
2024/01/24 13:32:25;;;;;;;18.20;5.63;;;;;;;;;;5056891;28;20181;-67
2024/01/24 13:34:51;;;;;;;27.47;6.30;;;;;;;;;;5055511;28;20208;-67
2024/01/24 13:37:18;;;;;;;23.20;6.13;;;;;;;;;;5073335;28;20185;-67
2024/01/24 13:39:44;;;;;;;21.37;5.27;;;;;;;;;;5073211;28;20201;-67
2024/01/24 13:42:11;;;;;;;19.33;5.37;;;;;;;;;;5073101;28;20170;-66
2024/01/24 13:44:37;;;;;;;17.70;4.97;;;;;;;;;;5073624;28;20189;-68
2024/01/24 13:47:03;;;;;;;21.13;5.37;;;;;;;;;;5073006;28;20177;-68
2024/01/24 13:49:29;;;;;;;23.67;4.77;;;;;;;;;;5073256;28;20231;-68
2024/01/24 13:51:55;;;;;;;29.03;5.97;;;;;;;;;;5055879;28;20182;-68
2024/01/24 13:54:21;;;;;;;19.90;5.70;;;;;;;;;;5073036;28;20782;-68
2024/01/24 13:56:47;;;;;;;12.97;4.07;;;;;;;;;;5055066;28;20276;-67
2024/01/24 13:59:13;;;;;;;23.43;5.20;;;;;;;;;;5072847;28;20244;-68
2024/01/24 14:01:39;;;;;;;21.20;5.03;;;;;;;;;;5072935;28;20290;-68
2024/01/24 14:04:05;;;;;;;23.97;5.97;;;;;;;;;;5054800;28;20755;-68
2024/01/24 14:06:31;;;;;;;24.60;6.07;;;;;;;;;;5072974;28;20185;-68
2024/01/24 14:08:57;;;;;;;21.83;5.47;;;;;;;;;;5073013;28;20209;-68
2024/01/24 14:11:23;;;;;;;21.43;5.70;;;;;;;;;;5072874;28;20174;-68
2024/01/24 14:13:49;;;;;;;25.27;7.77;;;;;;;;;;5073196;28;20181;-68
2024/01/24 14:16:17;;;;;;;24.97;6.30;;;;;;;;;;5072793;28;20194;-68
2024/01/24 14:18:43;;;;;;;20.23;5.27;;;;;;;;;;5072862;28;20184;-68
2024/01/24 14:21:10;;;;;;;25.43;6.97;;;;;;;;;;5054718;28;20280;-68
2024/01/24 14:23:36;;;;;;;19.00;5.20;;;;;;;;;;5073255;28;20170;-68
2024/01/24 14:26:02;;;;;;;15.63;4.43;;;;;;;;;;5073347;28;20186;-67
2024/01/24 14:28:28;;;;;;;21.13;5.03;;;;;;;;;;5054787;28;20574;-68
2024/01/24 14:30:54;;;;;;;18.87;4.90;;;;;;;;;;5072705;28;20186;-68